createdAt,value
2022-10-24T00:00:47.592Z,25.81
2022-10-24T00:03:20.804Z,25.34
2022-10-24T00:05:53.159Z,25.54
2022-10-24T00:08:25.420Z,25.67
2022-10-24T00:10:57.815Z,25.72
2022-10-24T00:13:29.867Z,25.65
2022-10-24T00:16:03.644Z,25.68
2022-10-24T00:18:36.166Z,25.62
2022-10-24T00:21:09.158Z,25.64
2022-10-24T00:23:42.148Z,25.59
2022-10-24T00:26:16.238Z,25.31
2022-10-24T00:28:49.026Z,25.56
2022-10-24T00:31:23.831Z,25.55
2022-10-24T00:33:58.154Z,25.53
2022-10-24T00:36:31.900Z,25.53
2022-10-24T00:39:04.124Z,25.69
2022-10-24T00:41:38.912Z,25.52
2022-10-24T00:44:21.318Z,25.45
2022-10-24T00:46:58.624Z,25.18
2022-10-24T00:49:35.631Z,25.21
2022-10-24T00:52:11.747Z,25.42
2022-10-24T00:54:45.745Z,25.60
2022-10-24T00:57:24.999Z,25.26
2022-10-24T01:00:01.477Z,25.52
2022-10-24T01:02:36.371Z,25.59
2022-10-24T01:05:10.572Z,25.55
2022-10-24T01:07:53.669Z,25.43
2022-10-24T01:10:41.972Z,25.15
2022-10-24T01:13:25.787Z,25.26
2022-10-24T01:16:08.306Z,25.43
2022-10-24T01:18:47.312Z,25.41
2022-10-24T01:21:28.555Z,25.34
2022-10-24T01:24:33.037Z,25.54
2022-10-24T01:27:37.776Z,25.43
2022-10-24T01:30:14.125Z,25.12
2022-10-24T01:32:55.204Z,25.08
2022-10-24T01:35:37.482Z,25.39
2022-10-24T01:38:16.140Z,25.56
2022-10-24T01:40:55.021Z,25.62
2022-10-24T01:43:31.947Z,25.67
2022-10-24T01:46:10.885Z,27.09
2022-10-24T01:48:48.767Z,27.15
2022-10-24T01:51:23.320Z,27.18
2022-10-24T01:53:56.228Z,27.19
2022-10-24T01:56:29.641Z,27.23
2022-10-24T01:59:09.867Z,27.20
2022-10-24T02:01:44.518Z,27.18
2022-10-24T02:04:17.310Z,27.03
2022-10-24T02:06:52.007Z,26.85
2022-10-24T02:09:26.001Z,26.70
2022-10-24T02:12:02.863Z,26.73
2022-10-24T02:14:39.525Z,26.66
2022-10-24T02:17:14.240Z,26.68
2022-10-24T02:19:47.850Z,26.68
2022-10-24T02:22:30.082Z,26.72
2022-10-24T02:25:07.448Z,26.78
2022-10-24T02:27:45.914Z,26.82
2022-10-24T02:30:22.233Z,26.90
2022-10-24T02:32:59.762Z,26.82
2022-10-24T02:35:35.887Z,26.81
2022-10-24T02:38:15.769Z,26.93
2022-10-24T02:40:49.859Z,26.93
2022-10-24T02:43:25.766Z,26.69
2022-10-24T02:46:00.436Z,26.84
2022-10-24T02:48:39.189Z,26.97
2022-10-24T02:51:11.499Z,27.02
2022-10-24T02:53:45.275Z,27.10
2022-10-24T02:56:18.124Z,27.04
2022-10-24T02:58:50.880Z,27.03
2022-10-24T03:01:23.015Z,27.03
2022-10-24T03:03:57.488Z,26.94
2022-10-24T03:06:29.597Z,26.97
2022-10-24T03:09:01.511Z,26.98
2022-10-24T03:11:34.430Z,27.14
2022-10-24T03:14:07.233Z,27.06
2022-10-24T03:16:39.804Z,27.00
2022-10-24T03:19:14.190Z,26.91
2022-10-24T03:22:07.289Z,26.86
2022-10-24T03:24:44.471Z,26.92
2022-10-24T03:27:27.092Z,26.88
2022-10-24T03:29:59.968Z,26.94
2022-10-24T03:32:32.692Z,27.00
2022-10-24T03:35:08.026Z,27.06
2022-10-24T03:37:43.390Z,27.12
2022-10-24T03:40:16.512Z,27.12
2022-10-24T03:42:49.547Z,27.07
2022-10-24T03:45:22.038Z,26.89
2022-10-24T03:47:54.963Z,27.12
2022-10-24T03:50:27.368Z,27.24
2022-10-24T03:53:01.134Z,26.65
2022-10-24T03:55:36.642Z,26.82
2022-10-24T03:58:08.773Z,27.01
2022-10-24T04:00:42.102Z,26.98
2022-10-24T04:03:15.353Z,27.17
2022-10-24T04:05:48.211Z,27.14
2022-10-24T04:08:22.976Z,27.18
2022-10-24T04:10:54.928Z,27.32
2022-10-24T04:13:38.290Z,27.11
2022-10-24T04:16:29.606Z,27.26
2022-10-24T04:19:02.901Z,27.18
2022-10-24T04:21:36.718Z,27.20
2022-10-24T04:24:11.655Z,27.23
2022-10-24T04:26:44.428Z,27.23
2022-10-24T04:29:30.584Z,27.33
2022-10-24T04:32:28.407Z,27.49
2022-10-24T04:35:00.587Z,27.64
2022-10-24T04:37:33.253Z,27.59
2022-10-24T04:42:57.781Z,27.74
2022-10-24T04:45:30.509Z,27.75
2022-10-24T04:48:02.994Z,27.69
2022-10-24T04:50:36.214Z,27.80
2022-10-24T04:53:16.324Z,27.97
2022-10-24T04:55:50.989Z,27.93
2022-10-24T04:58:23.452Z,27.99
2022-10-24T05:00:56.908Z,27.91
2022-10-24T05:03:41.436Z,28.08
2022-10-24T05:06:14.545Z,27.96
2022-10-24T05:08:51.670Z,28.14
2022-10-24T05:11:31.303Z,28.23
2022-10-24T05:14:05.818Z,28.17
2022-10-24T05:16:38.836Z,28.29
2022-10-24T05:19:11.225Z,28.22
2022-10-24T05:21:43.530Z,28.26
2022-10-24T05:24:16.045Z,28.44
2022-10-24T05:26:51.219Z,28.41
2022-10-24T05:29:23.266Z,28.42
2022-10-24T05:31:56.046Z,28.43
2022-10-24T05:34:28.410Z,28.54
2022-10-24T05:37:01.686Z,28.53
2022-10-24T05:39:34.797Z,28.60
2022-10-24T05:42:15.371Z,28.63
2022-10-24T05:44:48.305Z,28.65
2022-10-24T05:47:23.561Z,29.00
2022-10-24T05:49:58.359Z,28.92
2022-10-24T05:52:34.752Z,28.97
2022-10-24T05:55:11.893Z,29.07
2022-10-24T05:57:50.576Z,29.22
2022-10-24T06:00:24.002Z,29.04
2022-10-24T06:02:57.741Z,29.39
2022-10-24T06:05:34.307Z,29.27
2022-10-24T06:08:09.768Z,29.26
2022-10-24T06:10:42.102Z,29.45
2022-10-24T06:13:16.696Z,29.47
2022-10-24T06:15:50.035Z,29.63
2022-10-24T06:18:22.770Z,29.34
2022-10-24T06:20:56.273Z,29.35
2022-10-24T06:23:29.679Z,29.55
2022-10-24T06:26:02.986Z,29.34
2022-10-24T06:28:37.901Z,29.76
2022-10-24T06:31:10.842Z,29.89
2022-10-24T06:33:44.129Z,29.69
2022-10-24T06:36:20.377Z,29.96
2022-10-24T06:38:59.068Z,29.78
2022-10-24T06:41:31.686Z,29.72
2022-10-24T06:44:10.717Z,29.77
2022-10-24T06:47:12.877Z,30.02
2022-10-24T06:50:44.193Z,29.67
2022-10-24T06:56:15.680Z,30.11
2022-10-24T06:58:49.870Z,29.67
2022-10-24T07:01:27.327Z,29.69
2022-10-24T07:04:11.670Z,29.81
2022-10-24T07:06:52.186Z,29.82
2022-10-24T07:09:30.619Z,30.02
2022-10-24T07:12:07.145Z,30.31
2022-10-24T07:15:02.688Z,29.96
2022-10-24T07:17:50.585Z,30.22
2022-10-24T07:20:24.220Z,29.80
2022-10-24T07:23:06.787Z,29.77
2022-10-24T07:27:42.551Z,29.79
2022-10-24T07:31:12.417Z,30.33
2022-10-24T07:33:18.250Z,30.60
2022-10-24T07:35:57.401Z,30.31
2022-10-24T07:38:41.680Z,30.43
2022-10-24T07:41:15.225Z,30.31
2022-10-24T07:43:54.781Z,30.34
2022-10-24T07:46:37.452Z,30.30
2022-10-24T07:49:14.411Z,30.15
2022-10-24T07:52:01.414Z,30.41
2022-10-24T07:54:38.799Z,30.85
2022-10-24T07:57:34.618Z,30.72
2022-10-24T08:00:12.523Z,30.93
2022-10-24T08:05:36.300Z,30.55
2022-10-24T08:08:35.574Z,30.37
2022-10-24T08:11:28.255Z,30.57
2022-10-24T08:14:33.487Z,30.64
2022-10-24T08:18:44.666Z,30.81
2022-10-24T08:25:26.917Z,30.87
2022-10-24T08:28:52.733Z,30.38
2022-10-24T08:32:17.416Z,30.84
2022-10-24T08:35:22.285Z,30.73
2022-10-24T08:46:07.777Z,30.66
2022-10-24T08:48:49.317Z,30.75
2022-10-24T08:51:41.977Z,30.69
2022-10-24T08:54:19.585Z,30.90
2022-10-24T08:56:53.851Z,30.85
2022-10-24T08:59:26.330Z,30.85
2022-10-24T09:02:05.025Z,30.71
2022-10-24T09:04:46.196Z,31.07
2022-10-24T09:07:22.071Z,31.02
2022-10-24T09:10:00.250Z,30.87
2022-10-24T09:12:37.531Z,31.04
2022-10-24T09:17:29.390Z,30.87
2022-10-24T09:20:06.273Z,30.87
2022-10-24T09:22:42.042Z,30.97
2022-10-24T09:25:31.135Z,30.83
2022-10-24T09:28:06.800Z,30.74
2022-10-24T09:30:40.305Z,30.92
2022-10-24T09:33:28.170Z,30.92
2022-10-24T09:36:03.100Z,30.75
2022-10-24T09:38:37.180Z,30.84
2022-10-24T09:41:19.253Z,30.85
2022-10-24T09:43:56.521Z,30.72
2022-10-24T09:46:32.428Z,30.70
2022-10-24T09:49:15.486Z,30.86
2022-10-24T09:51:51.252Z,30.95
2022-10-24T09:54:34.035Z,30.82
2022-10-24T10:00:02.160Z,31.00
2022-10-24T10:02:39.080Z,31.06
2022-10-24T10:05:21.549Z,30.90
2022-10-24T10:07:55.465Z,30.90
2022-10-24T10:10:32.918Z,30.72
2022-10-24T10:13:11.181Z,30.63
2022-10-24T10:15:50.339Z,30.56
2022-10-24T10:18:33.922Z,30.67
2022-10-24T10:21:10.935Z,30.87
2022-10-24T10:23:48.127Z,30.85
2022-10-24T10:26:29.584Z,30.65
2022-10-24T10:29:04.832Z,30.77
2022-10-24T10:31:42.681Z,31.01
2022-10-24T10:34:29.172Z,30.81
2022-10-24T10:37:26.597Z,30.89
2022-10-24T10:40:26.071Z,31.41
2022-10-24T10:43:19.506Z,31.45
2022-10-24T10:46:01.331Z,31.05
2022-10-24T10:48:51.546Z,31.02
2022-10-24T10:51:36.677Z,31.00
2022-10-24T10:54:27.122Z,31.02
2022-10-24T10:57:04.596Z,30.97
2022-10-24T10:59:50.496Z,30.98
2022-10-24T11:02:50.673Z,31.00
2022-10-24T11:05:36.712Z,30.98
2022-10-24T11:08:26.468Z,30.97
2022-10-24T11:11:04.730Z,30.88
2022-10-24T11:13:42.076Z,30.85
2022-10-24T11:16:19.950Z,30.97
2022-10-24T11:18:56.308Z,30.94
2022-10-24T11:21:31.089Z,31.00
2022-10-24T11:24:13.674Z,30.94
2022-10-24T11:26:54.308Z,30.89
2022-10-24T11:29:34.840Z,30.97
2022-10-24T11:32:55.953Z,30.85
2022-10-24T11:35:34.670Z,30.88
2022-10-24T11:38:15.678Z,30.80
2022-10-24T11:40:53.631Z,30.85
2022-10-24T11:43:39.019Z,30.80
2022-10-24T11:46:18.727Z,30.76
2022-10-24T11:48:57.677Z,30.69
2022-10-24T11:51:39.312Z,30.60
2022-10-24T11:54:19.788Z,30.55
2022-10-24T11:56:56.338Z,30.49
2022-10-24T11:59:32.155Z,30.37
2022-10-24T12:02:43.312Z,30.35
2022-10-24T12:05:56.520Z,30.19
2022-10-24T12:08:49.079Z,30.14
2022-10-24T12:11:36.215Z,30.15
2022-10-24T12:14:36.820Z,30.08
2022-10-24T12:17:34.681Z,30.21
2022-10-24T12:20:08.809Z,30.18
2022-10-24T12:22:46.866Z,30.00
2022-10-24T12:25:25.901Z,29.86
2022-10-24T12:28:00.289Z,29.76
2022-10-24T12:30:36.393Z,29.68
2022-10-24T12:33:27.648Z,29.62
2022-10-24T12:36:00.711Z,29.59
2022-10-24T12:39:07.791Z,29.65
2022-10-24T12:41:45.451Z,29.66
2022-10-24T12:44:44.473Z,29.62
2022-10-24T12:47:41.717Z,29.74
2022-10-24T12:50:52.190Z,29.76
2022-10-24T12:54:03.924Z,29.78
2022-10-24T12:56:37.407Z,29.71
2022-10-24T12:59:22.979Z,29.74
2022-10-24T13:02:26.775Z,29.87
2022-10-24T13:05:15.109Z,29.88
2022-10-24T13:08:11.617Z,29.73
2022-10-24T13:11:03.143Z,29.94
2022-10-24T13:13:59.176Z,29.86
2022-10-24T13:16:43.320Z,29.99
2022-10-24T13:19:20.881Z,29.98
2022-10-24T13:21:56.366Z,29.99
2022-10-24T13:24:39.500Z,30.01
2022-10-24T13:27:35.436Z,29.94
2022-10-24T13:30:30.787Z,29.96
2022-10-24T13:33:51.199Z,29.90
2022-10-24T13:36:28.690Z,29.76
2022-10-24T13:39:04.695Z,29.75
2022-10-24T13:41:40.784Z,29.69
2022-10-24T13:44:25.039Z,29.75
2022-10-24T13:47:03.270Z,29.73
2022-10-24T13:49:39.989Z,29.63
2022-10-24T13:52:22.096Z,29.70
2022-10-24T13:55:03.280Z,29.60
2022-10-24T13:57:39.393Z,29.90
2022-10-24T14:00:22.894Z,29.66
2022-10-24T14:02:56.057Z,29.69
2022-10-24T14:05:35.758Z,29.82
2022-10-24T14:08:09.293Z,29.55
2022-10-24T14:10:43.955Z,29.66
2022-10-24T14:13:21.256Z,29.44
2022-10-24T14:15:55.634Z,29.30
2022-10-24T14:18:27.671Z,29.26
2022-10-24T14:21:02.817Z,29.35
2022-10-24T14:23:37.070Z,29.27
2022-10-24T14:26:18.944Z,29.34
2022-10-24T14:28:58.660Z,29.24
2022-10-24T14:31:36.263Z,29.18
2022-10-24T14:34:11.099Z,29.12
2022-10-24T14:36:43.778Z,29.07
2022-10-24T14:39:25.251Z,29.09
2022-10-24T14:42:00.754Z,29.08
2022-10-24T14:44:37.400Z,29.18
2022-10-24T14:47:22.294Z,29.26
2022-10-24T14:49:54.406Z,29.18
2022-10-24T14:52:33.677Z,29.25
2022-10-24T14:55:09.487Z,29.03
2022-10-24T14:57:43.628Z,29.07
2022-10-24T15:00:25.583Z,29.13
2022-10-24T15:03:00.692Z,29.12
2022-10-24T15:05:36.957Z,29.20
2022-10-24T15:08:31.693Z,29.17
2022-10-24T15:11:19.226Z,29.05
2022-10-24T15:14:06.395Z,29.23
2022-10-24T15:16:43.517Z,29.08
2022-10-24T15:19:21.030Z,28.98
2022-10-24T15:21:53.178Z,29.09
2022-10-24T15:24:29.103Z,29.07
2022-10-24T15:27:14.175Z,28.90
2022-10-24T15:29:48.032Z,28.78
2022-10-24T15:32:20.047Z,28.80
2022-10-24T15:34:52.571Z,28.71
2022-10-24T15:37:26.577Z,28.71
2022-10-24T15:39:59.024Z,28.71
2022-10-24T15:42:30.981Z,28.75
2022-10-24T15:45:05.751Z,28.81
2022-10-24T15:47:37.900Z,28.67
2022-10-24T15:50:11.884Z,28.71
2022-10-24T15:52:44.525Z,28.59
2022-10-24T15:55:22.077Z,28.62
2022-10-24T15:57:55.170Z,28.53
2022-10-24T16:00:29.271Z,28.60
2022-10-24T16:03:06.024Z,28.54
2022-10-24T16:05:41.947Z,28.59
2022-10-24T16:08:16.873Z,28.53
2022-10-24T16:10:49.780Z,28.66
2022-10-24T16:13:22.974Z,28.52
2022-10-24T16:15:58.147Z,28.48
2022-10-24T16:18:31.732Z,28.56
2022-10-24T16:21:03.996Z,28.55
2022-10-24T16:23:37.115Z,28.44
2022-10-24T16:26:10.188Z,28.44
2022-10-24T16:28:42.331Z,28.54
2022-10-24T16:31:24.899Z,28.48
2022-10-24T16:33:57.307Z,28.39
2022-10-24T16:36:30.394Z,28.42
2022-10-24T16:39:02.803Z,28.46
2022-10-24T16:41:35.433Z,28.50
2022-10-24T16:44:07.952Z,28.45
2022-10-24T16:46:42.139Z,28.46
2022-10-24T16:49:15.000Z,28.41
2022-10-24T16:51:48.469Z,28.56
2022-10-24T16:54:22.110Z,28.68
2022-10-24T16:56:54.672Z,28.78
2022-10-24T16:59:27.840Z,28.68
2022-10-24T17:02:01.957Z,28.64
2022-10-24T17:04:34.834Z,28.65
2022-10-24T17:07:07.274Z,28.64
2022-10-24T17:09:40.327Z,28.48
2022-10-24T17:12:12.759Z,28.47
2022-10-24T17:14:45.677Z,28.20
2022-10-24T17:17:19.815Z,28.33
2022-10-24T17:19:52.649Z,28.30
2022-10-24T17:22:25.814Z,28.23
2022-10-24T17:24:59.773Z,28.33
2022-10-24T17:27:32.766Z,28.42
2022-10-24T17:30:05.249Z,28.29
2022-10-24T17:32:39.171Z,28.18
2022-10-24T17:35:15.854Z,28.15
2022-10-24T17:37:58.452Z,27.98
2022-10-24T17:40:34.829Z,28.03
2022-10-24T17:43:07.878Z,28.09
2022-10-24T17:45:40.908Z,28.02
2022-10-24T17:48:15.574Z,28.04
2022-10-24T17:50:48.781Z,28.08
2022-10-24T17:53:21.988Z,28.13
2022-10-24T17:55:54.384Z,28.19
2022-10-24T17:58:26.828Z,28.02
2022-10-24T18:00:59.185Z,28.01
2022-10-24T18:03:32.897Z,28.03
2022-10-24T18:06:08.124Z,28.08
2022-10-24T18:08:40.238Z,28.00
2022-10-24T18:11:14.346Z,27.97
2022-10-24T18:13:46.772Z,28.10
2022-10-24T18:16:22.007Z,28.16
2022-10-24T18:18:56.522Z,28.09
2022-10-24T18:21:30.089Z,28.01
2022-10-24T18:24:02.848Z,27.92
2022-10-24T18:26:35.475Z,27.84
2022-10-24T18:29:08.274Z,27.92
2022-10-24T18:31:40.863Z,27.70
2022-10-24T18:34:14.506Z,27.83
2022-10-24T18:36:46.541Z,27.90
2022-10-24T18:39:18.757Z,27.96
2022-10-24T18:41:52.975Z,27.94
2022-10-24T18:44:28.854Z,27.85
2022-10-24T18:47:03.389Z,27.83
2022-10-24T18:49:38.547Z,27.89
2022-10-24T18:52:20.678Z,27.83
2022-10-24T18:55:05.457Z,27.72
2022-10-24T18:57:38.286Z,27.84
2022-10-24T19:00:16.054Z,27.88
2022-10-24T19:02:59.788Z,27.86
2022-10-24T19:05:47.005Z,27.80
2022-10-24T19:08:23.963Z,27.71
2022-10-24T19:10:57.735Z,27.77
2022-10-24T19:13:31.098Z,27.74
2022-10-24T19:16:05.534Z,27.60
2022-10-24T19:18:40.054Z,27.58
2022-10-24T19:21:13.713Z,27.66
2022-10-24T19:23:46.502Z,27.69
2022-10-24T19:26:18.637Z,27.69
2022-10-24T19:28:51.210Z,27.70
2022-10-24T19:31:23.000Z,27.69
2022-10-24T19:33:57.655Z,27.62
2022-10-24T19:36:32.486Z,27.56
2022-10-24T19:39:05.048Z,27.47
2022-10-24T19:41:37.174Z,27.34
2022-10-24T19:44:09.614Z,27.49
2022-10-24T19:46:42.422Z,27.49
2022-10-24T19:49:15.053Z,27.46
2022-10-24T19:51:48.859Z,27.57
2022-10-24T19:54:21.647Z,27.50
2022-10-24T19:56:56.175Z,27.48
2022-10-24T19:59:33.291Z,27.36
2022-10-24T20:02:05.920Z,27.06
2022-10-24T20:04:41.942Z,27.24
2022-10-24T20:07:18.839Z,27.34
2022-10-24T20:09:51.862Z,27.39
2022-10-24T20:12:24.890Z,27.44
2022-10-24T20:14:56.826Z,27.38
2022-10-24T20:17:30.020Z,27.35
2022-10-24T20:20:01.990Z,27.38
2022-10-24T20:22:36.087Z,27.20
2022-10-24T20:25:08.592Z,26.93
2022-10-24T20:27:42.060Z,27.13
2022-10-24T20:30:15.675Z,27.10
2022-10-24T20:32:47.667Z,27.21
2022-10-24T20:35:19.651Z,27.17
2022-10-24T20:37:53.197Z,27.22
2022-10-24T20:40:25.603Z,27.08
2022-10-24T20:42:57.616Z,27.15
2022-10-24T20:45:29.577Z,27.07
2022-10-24T20:48:01.635Z,26.92
2022-10-24T20:50:34.318Z,26.96
2022-10-24T20:53:08.966Z,27.08
2022-10-24T20:55:45.143Z,27.00
2022-10-24T20:58:17.506Z,26.97
2022-10-24T21:00:49.480Z,26.94
2022-10-24T21:03:21.694Z,26.86
2022-10-24T21:05:54.146Z,26.91
2022-10-24T21:08:27.918Z,26.71
2022-10-24T21:11:00.255Z,26.70
2022-10-24T21:13:32.500Z,26.80
2022-10-24T21:16:04.592Z,26.65
2022-10-24T21:18:37.406Z,26.74
2022-10-24T21:21:14.203Z,26.90
2022-10-24T21:23:48.726Z,26.87
2022-10-24T21:26:20.676Z,26.75
2022-10-24T21:28:59.535Z,26.69
2022-10-24T21:31:47.065Z,26.46
2022-10-24T21:34:19.193Z,26.36
2022-10-24T21:36:51.824Z,26.60
2022-10-24T21:39:25.322Z,26.69
2022-10-24T21:41:57.161Z,26.63
2022-10-24T21:44:29.673Z,26.50
2022-10-24T21:47:02.117Z,26.49
2022-10-24T21:49:34.450Z,26.48
2022-10-24T21:52:06.465Z,26.48
2022-10-24T21:54:40.533Z,26.56
2022-10-24T21:57:13.092Z,26.60
2022-10-24T21:59:46.320Z,26.33
2022-10-24T22:02:18.373Z,26.34
2022-10-24T22:04:53.806Z,26.47
2022-10-24T22:10:07.031Z,26.46
2022-10-24T22:12:39.452Z,26.44
2022-10-24T22:15:12.700Z,26.39
2022-10-24T22:17:46.048Z,26.37
2022-10-24T22:20:19.190Z,26.32
2022-10-24T22:22:51.861Z,26.02
2022-10-24T22:25:25.444Z,26.20
2022-10-24T22:27:58.085Z,26.24
2022-10-24T22:30:30.585Z,26.34
2022-10-24T22:33:02.963Z,26.32
2022-10-24T22:35:37.737Z,26.29
2022-10-24T22:38:10.184Z,26.25
2022-10-24T22:40:45.225Z,26.14
2022-10-24T22:43:17.737Z,25.93
2022-10-24T22:46:01.672Z,25.73
2022-10-24T22:48:39.460Z,26.02
2022-10-24T22:51:13.183Z,26.16
2022-10-24T22:53:47.486Z,26.10
2022-10-24T22:56:28.404Z,26.03
2022-10-24T22:59:00.791Z,26.05
2022-10-24T23:01:45.942Z,26.10
2022-10-24T23:04:28.042Z,26.12
2022-10-24T23:07:06.115Z,25.87
2022-10-24T23:09:38.639Z,25.95
2022-10-24T23:12:17.856Z,25.96
2022-10-24T23:14:51.249Z,25.92
2022-10-24T23:17:27.040Z,25.94
2022-10-24T23:20:00.046Z,25.91
2022-10-24T23:22:33.482Z,26.01
2022-10-24T23:25:06.338Z,26.01
2022-10-24T23:27:42.798Z,26.01
2022-10-24T23:30:20.651Z,25.84
2022-10-24T23:32:54.655Z,25.90
2022-10-24T23:35:27.631Z,25.93
2022-10-24T23:38:01.012Z,25.98
2022-10-24T23:40:37.126Z,25.97
2022-10-24T23:43:17.622Z,25.82
2022-10-24T23:45:59.127Z,25.87
2022-10-24T23:48:47.501Z,25.87
2022-10-24T23:51:26.462Z,25.74
